createdAt,value
2018-04-13T00:00:46.270Z,82.80
2018-04-13T00:03:14.555Z,82.00
2018-04-13T00:05:42.065Z,82.40
2018-04-13T00:08:09.593Z,83.20
2018-04-13T00:10:37.105Z,82.60
2018-04-13T00:13:04.625Z,82.80
2018-04-13T00:15:32.142Z,82.80
2018-04-13T00:17:59.668Z,82.90
2018-04-13T00:20:27.177Z,82.70
2018-04-13T00:22:54.714Z,82.40
2018-04-13T00:25:22.237Z,82.60
2018-04-13T00:27:49.753Z,83.10
2018-04-13T00:30:17.256Z,83.30
2018-04-13T00:32:45.546Z,83.60
2018-04-13T00:35:13.824Z,83.70
2018-04-13T00:37:42.140Z,84.10
2018-04-13T00:40:09.652Z,84.00
2018-04-13T00:42:37.175Z,84.30
2018-04-13T00:45:05.452Z,84.60
2018-04-13T00:47:33.741Z,84.40
2018-04-13T00:50:02.015Z,84.00
2018-04-13T00:52:29.551Z,83.80
2018-04-13T00:54:57.049Z,83.60
2018-04-13T00:57:24.572Z,83.40
2018-04-13T00:59:52.106Z,83.40
2018-04-13T01:02:20.410Z,83.90
2018-04-13T01:04:48.705Z,83.80
2018-04-13T01:07:16.207Z,83.80
2018-04-13T01:09:43.728Z,83.90
2018-04-13T01:12:11.235Z,84.10
2018-04-13T01:14:38.774Z,83.90
2018-04-13T01:17:07.071Z,84.50
2018-04-13T01:19:35.372Z,84.60
2018-04-13T01:22:03.640Z,84.70
2018-04-13T01:24:31.967Z,85.80
2018-04-13T01:26:59.470Z,85.80
2018-04-13T01:29:26.992Z,86.00
2018-04-13T01:31:55.254Z,86.40
2018-04-13T01:34:22.787Z,86.40
2018-04-13T01:36:50.299Z,86.50
2018-04-13T01:39:17.825Z,86.40
2018-04-13T01:41:45.334Z,86.70
2018-04-13T01:44:12.857Z,86.70
2018-04-13T01:46:40.371Z,86.90
2018-04-13T01:49:07.899Z,86.70
2018-04-13T01:51:35.411Z,86.90
2018-04-13T01:54:02.940Z,87.40
2018-04-13T01:56:30.521Z,87.60
2018-04-13T01:58:58.049Z,88.30
2018-04-13T02:01:26.317Z,89.80
2018-04-13T02:03:53.836Z,89.80
2018-04-13T02:06:21.353Z,89.80
2018-04-13T02:08:48.883Z,89.80
2018-04-13T02:11:16.376Z,89.70
2018-04-13T02:13:43.904Z,89.90
2018-04-13T02:16:12.209Z,90.20
2018-04-13T02:18:39.736Z,90.20
2018-04-13T02:21:07.270Z,90.40
2018-04-13T02:23:34.778Z,90.60
2018-04-13T02:26:02.316Z,90.70
2018-04-13T02:28:29.830Z,90.80
2018-04-13T02:30:57.358Z,90.80
2018-04-13T02:33:24.858Z,90.80
2018-04-13T02:35:52.389Z,90.80
2018-04-13T02:38:19.893Z,90.90
2018-04-13T02:40:47.438Z,90.80
2018-04-13T02:43:14.952Z,90.90
2018-04-13T02:45:42.482Z,90.90
2018-04-13T02:48:09.990Z,91.00
2018-04-13T02:50:37.523Z,90.70
2018-04-13T02:53:05.030Z,90.50
2018-04-13T02:55:32.552Z,90.40
2018-04-13T02:58:00.047Z,90.50
2018-04-13T03:00:27.565Z,90.10
2018-04-13T03:02:55.067Z,89.90
2018-04-13T03:05:22.599Z,89.50
2018-04-13T03:07:50.106Z,88.90
2018-04-13T03:10:17.641Z,88.10
2018-04-13T03:12:45.153Z,88.00
2018-04-13T03:15:12.682Z,87.60
2018-04-13T03:17:40.202Z,87.20
2018-04-13T03:20:07.738Z,86.50
2018-04-13T03:22:36.018Z,86.30
2018-04-13T03:25:03.536Z,86.30
2018-04-13T03:27:31.067Z,86.20
2018-04-13T03:29:59.354Z,86.40
2018-04-13T03:32:26.884Z,86.40
2018-04-13T03:34:54.394Z,86.90
2018-04-13T03:37:21.925Z,86.20
2018-04-13T03:39:49.420Z,86.00
2018-04-13T03:42:16.948Z,86.00
2018-04-13T03:44:44.448Z,85.90
2018-04-13T03:47:12.008Z,85.70
2018-04-13T03:49:39.583Z,85.60
2018-04-13T03:52:07.116Z,85.80
2018-04-13T03:54:34.678Z,86.10
2018-04-13T03:57:02.168Z,86.10
2018-04-13T03:59:29.720Z,86.10
2018-04-13T04:01:58.023Z,86.30
2018-04-13T04:04:26.297Z,86.70
2018-04-13T04:06:54.582Z,86.50
2018-04-13T04:09:22.095Z,86.50
2018-04-13T04:11:49.625Z,86.40
2018-04-13T04:14:17.135Z,86.50
2018-04-13T04:16:44.652Z,86.70
2018-04-13T04:19:13.774Z,87.40
2018-04-13T04:25:00.102Z,86.30
2018-04-13T04:27:27.629Z,86.00
2018-04-13T04:29:55.136Z,85.70
2018-04-13T04:32:22.712Z,85.80
2018-04-13T04:34:50.226Z,85.80
2018-04-13T04:37:17.757Z,85.80
2018-04-13T04:39:45.269Z,85.90
2018-04-13T04:42:13.575Z,85.80
2018-04-13T04:44:41.090Z,85.70
2018-04-13T04:47:08.638Z,85.60
2018-04-13T04:49:36.150Z,85.50
2018-04-13T04:52:03.686Z,85.60
2018-04-13T04:54:31.190Z,85.50
2018-04-13T04:56:58.725Z,85.20
2018-04-13T04:59:26.244Z,85.00
2018-04-13T05:01:53.746Z,84.70
2018-04-13T05:04:21.289Z,84.10
2018-04-13T05:06:48.816Z,84.50
2018-04-13T05:09:16.351Z,84.50
2018-04-13T05:11:43.867Z,84.60
2018-04-13T05:14:11.398Z,84.40
2018-04-13T05:16:38.901Z,84.40
2018-04-13T05:19:06.452Z,84.50
2018-04-13T05:21:34.258Z,84.30
2018-04-13T05:24:01.803Z,84.40
2018-04-13T05:26:29.318Z,84.60
2018-04-13T05:28:56.864Z,84.40
2018-04-13T05:31:24.372Z,84.50
2018-04-13T05:33:51.880Z,84.40
2018-04-13T05:36:19.378Z,84.80
2018-04-13T05:38:46.892Z,85.10
2018-04-13T05:41:14.394Z,85.20
2018-04-13T05:43:41.917Z,84.70
2018-04-13T05:46:09.518Z,84.60
2018-04-13T05:48:36.974Z,84.50
2018-04-13T05:51:04.477Z,84.10
2018-04-13T05:53:32.009Z,84.10
2018-04-13T05:55:59.515Z,84.10
2018-04-13T05:58:27.818Z,84.30
2018-04-13T06:00:55.319Z,84.20
2018-04-13T06:03:22.857Z,84.00
2018-04-13T06:05:50.377Z,84.10
2018-04-13T06:08:17.902Z,84.00
2018-04-13T06:10:45.402Z,83.80
2018-04-13T06:13:12.909Z,83.60
2018-04-13T06:15:40.444Z,83.20
2018-04-13T06:18:07.961Z,83.20
2018-04-13T06:20:36.258Z,83.10
2018-04-13T06:23:04.532Z,82.40
2018-04-13T06:25:32.084Z,82.40
2018-04-13T06:27:59.617Z,82.00
2018-04-13T06:30:27.153Z,81.60
2018-04-13T06:32:54.663Z,81.60
2018-04-13T06:35:22.193Z,81.60
2018-04-13T06:37:50.480Z,82.00
2018-04-13T06:40:18.005Z,81.30
2018-04-13T06:42:45.508Z,81.20
2018-04-13T06:45:13.035Z,81.20
2018-04-13T06:47:40.554Z,80.60
2018-04-13T06:50:08.852Z,78.60
2018-04-13T06:52:37.129Z,79.80
2018-04-13T06:55:04.666Z,79.50
2018-04-13T06:57:32.214Z,80.10
2018-04-13T06:59:59.758Z,80.30
2018-04-13T07:02:27.289Z,80.70
2018-04-13T07:04:54.825Z,80.70
2018-04-13T07:07:22.344Z,80.30
2018-04-13T07:09:49.877Z,79.80
2018-04-13T07:12:17.385Z,79.40
2018-04-13T07:14:44.892Z,79.30
2018-04-13T07:17:13.177Z,78.60
2018-04-13T07:19:41.461Z,77.10
2018-04-13T07:22:09.763Z,77.00
2018-04-13T07:24:38.054Z,76.80
2018-04-13T07:27:06.344Z,76.40
2018-04-13T07:29:33.845Z,76.30
2018-04-13T07:32:01.379Z,76.20
2018-04-13T07:34:29.664Z,76.40
2018-04-13T07:36:57.206Z,76.40
2018-04-13T07:39:24.768Z,76.40
2018-04-13T07:41:52.275Z,76.40
2018-04-13T07:44:19.785Z,76.50
2018-04-13T07:46:47.336Z,76.60
2018-04-13T07:49:15.606Z,76.70
2018-04-13T07:51:43.139Z,76.70
2018-04-13T07:54:10.644Z,76.20
2018-04-13T07:56:38.184Z,75.70
2018-04-13T07:59:05.717Z,75.90
2018-04-13T08:01:33.249Z,75.10
2018-04-13T08:04:00.756Z,75.50
2018-04-13T08:06:29.276Z,75.30
2018-04-13T08:08:56.589Z,75.30
2018-04-13T08:11:24.143Z,75.20
2018-04-13T08:13:51.682Z,75.30
2018-04-13T08:16:19.205Z,75.50
2018-04-13T08:18:46.709Z,75.70
2018-04-13T08:21:15.001Z,76.80
2018-04-13T08:23:42.504Z,76.80
2018-04-13T08:26:10.004Z,76.80
2018-04-13T08:28:37.533Z,76.80
2018-04-13T08:31:05.045Z,76.90
2018-04-13T08:33:32.587Z,77.00
2018-04-13T08:36:00.097Z,76.70
2018-04-13T08:38:27.629Z,76.90
2018-04-13T08:40:55.136Z,77.50
2018-04-13T08:43:22.725Z,77.00
2018-04-13T08:45:50.240Z,77.00
2018-04-13T08:48:17.755Z,76.50
2018-04-13T08:50:45.484Z,76.60
2018-04-13T08:53:14.088Z,76.10
2018-04-13T08:55:41.842Z,76.00
2018-04-13T08:58:09.460Z,77.00
2018-04-13T09:00:36.978Z,76.10
2018-04-13T09:03:05.274Z,76.30
2018-04-13T09:05:32.786Z,76.30
2018-04-13T09:08:00.318Z,75.80
2018-04-13T09:10:27.864Z,75.80
2018-04-13T09:12:56.174Z,75.40
2018-04-13T09:15:23.685Z,75.30
2018-04-13T09:17:51.206Z,75.20
2018-04-13T09:20:19.474Z,75.20
2018-04-13T09:22:47.036Z,75.10
2018-04-13T09:25:14.540Z,75.20
2018-04-13T09:27:42.874Z,74.80
2018-04-13T09:30:10.404Z,74.70
2018-04-13T09:32:38.705Z,74.50
2018-04-13T09:35:06.257Z,74.40
2018-04-13T09:37:34.566Z,72.90
2018-04-13T09:40:02.102Z,72.90
2018-04-13T09:42:29.601Z,71.90
2018-04-13T09:44:57.134Z,72.20
2018-04-13T09:47:24.642Z,71.50
2018-04-13T09:49:52.944Z,71.40
2018-04-13T09:52:20.457Z,71.30
2018-04-13T09:54:48.748Z,71.20
2018-04-13T09:57:16.296Z,71.20
2018-04-13T09:59:43.795Z,70.30
2018-04-13T10:05:20.593Z,70.50
2018-04-13T10:07:48.348Z,70.70
2018-04-13T10:10:16.025Z,70.70
2018-04-13T10:12:43.717Z,70.90
2018-04-13T10:15:11.299Z,71.10
2018-04-13T10:17:38.823Z,71.30
2018-04-13T10:20:07.146Z,73.70
2018-04-13T10:22:34.661Z,73.60
2018-04-13T10:25:02.201Z,76.50
2018-04-13T10:27:29.732Z,76.90
2018-04-13T10:29:58.043Z,80.40
2018-04-13T10:32:25.568Z,80.50
2018-04-13T10:34:53.129Z,82.10
2018-04-13T10:37:20.646Z,83.10
2018-04-13T10:39:48.182Z,84.20
2018-04-13T10:42:15.717Z,86.00
2018-04-13T10:44:43.246Z,85.40
2018-04-13T10:47:10.787Z,86.00
2018-04-13T10:49:38.303Z,87.60
2018-04-13T10:52:05.834Z,89.60
2018-04-13T10:54:33.363Z,90.70
2018-04-13T10:57:00.905Z,91.60
2018-04-13T10:59:28.451Z,91.80
2018-04-13T11:01:55.999Z,92.80
2018-04-13T11:04:24.291Z,93.90
2018-04-13T11:06:51.853Z,93.90
2018-04-13T11:09:19.444Z,93.50
2018-04-13T11:11:46.986Z,93.60
2018-04-13T11:14:14.505Z,93.20
2018-04-13T11:16:42.041Z,93.20
2018-04-13T11:19:09.563Z,92.70
2018-04-13T11:21:37.928Z,91.90
2018-04-13T11:24:06.163Z,91.90
2018-04-13T11:26:33.709Z,93.20
2018-04-13T11:29:02.023Z,91.00
2018-04-13T11:31:29.568Z,91.00
2018-04-13T11:33:57.889Z,91.00
2018-04-13T11:36:25.453Z,90.80
2018-04-13T11:38:52.989Z,91.90
2018-04-13T11:41:20.533Z,90.30
2018-04-13T11:43:48.078Z,90.50
2018-04-13T11:46:15.624Z,90.70
2018-04-13T11:48:43.923Z,90.30
2018-04-13T11:51:12.226Z,90.00
2018-04-13T11:53:39.762Z,90.00
2018-04-13T11:56:07.296Z,90.20
2018-04-13T11:58:34.806Z,90.20
2018-04-13T12:01:02.368Z,89.60
2018-04-13T12:03:29.894Z,90.40
2018-04-13T12:05:57.442Z,89.90
2018-04-13T12:08:25.741Z,89.80
2018-04-13T12:10:53.298Z,89.60
2018-04-13T12:13:21.598Z,89.60
2018-04-13T12:15:49.172Z,89.60
2018-04-13T12:18:16.682Z,90.20
2018-04-13T12:20:44.250Z,88.90
2018-04-13T12:23:11.787Z,89.60
2018-04-13T12:25:39.345Z,90.70
2018-04-13T12:28:07.748Z,89.70
2018-04-13T12:30:35.284Z,89.70
2018-04-13T12:33:02.856Z,89.80
2018-04-13T12:35:30.374Z,89.80
2018-04-13T12:37:57.911Z,89.90
2018-04-13T12:40:26.244Z,89.80
2018-04-13T12:42:53.790Z,89.40
2018-04-13T12:45:22.069Z,90.40
2018-04-13T12:47:49.611Z,90.30
2018-04-13T12:50:17.142Z,89.50
2018-04-13T12:52:44.751Z,88.90
2018-04-13T12:55:12.484Z,90.00
2018-04-13T12:57:40.558Z,87.00
2018-04-13T13:00:08.900Z,87.50
2018-04-13T13:02:36.443Z,87.50
2018-04-13T13:05:03.963Z,88.10
2018-04-13T13:07:31.506Z,87.90
2018-04-13T13:09:59.052Z,87.50
2018-04-13T13:12:26.595Z,86.90
2018-04-13T13:14:54.129Z,87.80
2018-04-13T13:17:21.679Z,87.80
2018-04-13T13:19:49.206Z,87.50
2018-04-13T13:22:16.741Z,85.00
2018-04-13T13:24:44.259Z,84.40
2018-04-13T13:27:12.568Z,85.80
2018-04-13T13:29:40.091Z,85.60
2018-04-13T13:32:07.652Z,85.00
2018-04-13T13:34:35.184Z,85.30
2018-04-13T13:37:03.440Z,85.60
2018-04-13T13:39:30.949Z,84.80
2018-04-13T13:41:58.474Z,83.60
2018-04-13T13:44:25.995Z,86.40
2018-04-13T13:46:53.552Z,85.50
2018-04-13T13:49:21.835Z,83.80
2018-04-13T13:51:50.142Z,84.20
2018-04-13T13:54:17.661Z,84.20
2018-04-13T13:56:45.198Z,83.60
2018-04-13T13:59:12.739Z,83.20
2018-04-13T14:01:41.031Z,85.40
2018-04-13T14:04:09.362Z,84.40
2018-04-13T14:06:36.885Z,84.40
2018-04-13T14:09:05.163Z,85.30
2018-04-13T14:11:33.446Z,86.50
2018-04-13T14:14:01.004Z,86.50
2018-04-13T14:16:28.531Z,89.20
2018-04-13T14:18:56.065Z,87.90
2018-04-13T14:21:23.583Z,89.10
2018-04-13T14:23:51.125Z,89.60
2018-04-13T14:26:19.448Z,89.30
2018-04-13T14:28:46.990Z,89.30
2018-04-13T14:31:15.286Z,89.70
2018-04-13T14:33:42.858Z,89.70
2018-04-13T14:36:11.147Z,89.40
2018-04-13T14:38:38.727Z,89.30
2018-04-13T14:41:06.990Z,87.30
2018-04-13T14:43:35.319Z,85.90
2018-04-13T14:46:02.842Z,86.40
2018-04-13T14:48:30.380Z,87.40
2018-04-13T14:50:57.964Z,86.20
2018-04-13T14:53:25.473Z,86.60
2018-04-13T14:55:53.747Z,86.80
2018-04-13T14:58:21.310Z,86.80
2018-04-13T15:00:48.833Z,87.00
2018-04-13T15:03:16.393Z,84.00
2018-04-13T15:05:44.674Z,85.30
2018-04-13T15:08:12.987Z,84.00
2018-04-13T15:10:40.511Z,84.00
2018-04-13T15:13:08.064Z,84.30
2018-04-13T15:15:36.358Z,84.50
2018-04-13T15:18:03.893Z,84.50
2018-04-13T15:20:31.425Z,85.60
2018-04-13T15:22:58.988Z,84.70
2018-04-13T15:25:26.497Z,85.50
2018-04-13T15:27:54.038Z,85.40
2018-04-13T15:30:21.589Z,85.20
2018-04-13T15:32:49.121Z,84.50
2018-04-13T15:35:16.635Z,83.60
2018-04-13T15:37:44.201Z,84.10
2018-04-13T15:40:11.783Z,83.60
2018-04-13T15:42:39.309Z,83.70
2018-04-13T15:45:06.843Z,83.70
2018-04-13T15:47:35.153Z,84.60
2018-04-13T15:50:02.700Z,84.10
2018-04-13T15:52:30.220Z,84.50
2018-04-13T15:54:57.776Z,83.80
2018-04-13T15:57:25.300Z,83.80
2018-04-13T15:59:52.829Z,83.90
2018-04-13T16:02:20.350Z,83.80
2018-04-13T16:04:47.891Z,84.70
2018-04-13T16:07:15.595Z,84.00
2018-04-13T16:09:43.145Z,84.10
2018-04-13T16:12:10.727Z,84.10
2018-04-13T16:14:38.213Z,84.20
2018-04-13T16:17:05.741Z,83.60
2018-04-13T16:19:33.250Z,82.30
2018-04-13T16:22:00.777Z,83.50
2018-04-13T16:24:28.336Z,82.20
2018-04-13T16:26:55.865Z,82.70
2018-04-13T16:29:23.387Z,82.00
2018-04-13T16:31:50.929Z,82.90
2018-04-13T16:34:19.212Z,83.10
2018-04-13T16:36:46.773Z,82.40
2018-04-13T16:39:14.299Z,82.80
2018-04-13T16:41:41.872Z,82.50
2018-04-13T16:44:09.416Z,82.50
2018-04-13T16:46:37.712Z,83.10
2018-04-13T16:49:05.260Z,82.90
2018-04-13T16:51:32.790Z,82.60
2018-04-13T16:54:00.360Z,82.40
2018-04-13T16:56:27.894Z,83.70
2018-04-13T16:58:56.186Z,83.30
2018-04-13T17:01:24.484Z,82.70
2018-04-13T17:03:52.019Z,82.70
2018-04-13T17:06:19.550Z,82.70
2018-04-13T17:08:47.096Z,83.20
2018-04-13T17:11:15.387Z,82.40
2018-04-13T17:13:43.692Z,82.40
2018-04-13T17:16:11.209Z,82.40
2018-04-13T17:18:38.732Z,82.90
2018-04-13T17:21:06.281Z,83.70
2018-04-13T17:23:33.820Z,83.60
2018-04-13T17:26:01.330Z,84.30
2018-04-13T17:28:28.895Z,84.10
2018-04-13T17:30:57.188Z,85.40
2018-04-13T17:33:25.498Z,86.50
2018-04-13T17:35:53.003Z,86.50
2018-04-13T17:38:20.542Z,87.20
2018-04-13T17:40:48.072Z,86.80
2018-04-13T17:43:15.599Z,87.50
2018-04-13T17:45:43.149Z,87.30
2018-04-13T17:48:10.676Z,87.60
2018-04-13T17:50:38.225Z,87.40
2018-04-13T17:53:06.528Z,88.20
2018-04-13T17:55:34.084Z,88.20
2018-04-13T17:58:01.593Z,88.40
2018-04-13T18:00:29.184Z,89.00
2018-04-13T18:02:56.702Z,89.30
2018-04-13T18:05:24.248Z,89.90
2018-04-13T18:07:51.783Z,89.70
2018-04-13T18:10:19.314Z,90.00
2018-04-13T18:12:46.835Z,90.00
2018-04-13T18:15:15.139Z,90.30
2018-04-13T18:17:43.420Z,90.40
2018-04-13T18:20:11.723Z,90.50
2018-04-13T18:22:39.247Z,90.50
2018-04-13T18:25:06.785Z,90.50
2018-04-13T18:27:34.308Z,90.90
2018-04-13T18:30:01.854Z,91.40
2018-04-13T18:32:29.403Z,91.50
2018-04-13T18:34:56.945Z,91.40
2018-04-13T18:37:25.225Z,91.50
2018-04-13T18:39:53.530Z,91.50
2018-04-13T18:42:21.380Z,91.40
2018-04-13T18:44:48.916Z,91.50
2018-04-13T18:47:16.446Z,91.70
2018-04-13T18:49:44.755Z,91.30
2018-04-13T18:52:12.289Z,91.30
2018-04-13T18:54:39.848Z,91.30
2018-04-13T18:57:08.141Z,91.10
2018-04-13T18:59:35.654Z,91.10
2018-04-13T19:02:03.183Z,91.30
2018-04-13T19:04:30.693Z,91.30
2018-04-13T19:06:58.231Z,91.20
2018-04-13T19:09:25.805Z,91.20
2018-04-13T19:11:53.344Z,91.30
2018-04-13T19:14:20.862Z,91.80
2018-04-13T19:16:48.390Z,92.10
2018-04-13T19:19:15.919Z,91.90
2018-04-13T19:21:43.468Z,92.10
2018-04-13T19:24:11.777Z,92.10
2018-04-13T19:26:40.074Z,91.70
2018-04-13T19:29:07.600Z,91.70
2018-04-13T19:31:35.134Z,91.60
2018-04-13T19:34:02.648Z,91.70
2018-04-13T19:36:30.178Z,91.40
2018-04-13T19:38:57.686Z,91.40
2018-04-13T19:41:25.232Z,91.40
2018-04-13T19:43:52.752Z,91.30
2018-04-13T19:46:21.054Z,91.10
2018-04-13T19:48:49.328Z,91.00
2018-04-13T19:51:16.855Z,91.00
2018-04-13T19:53:44.362Z,91.00
2018-04-13T19:56:11.896Z,90.90
2018-04-13T19:58:39.393Z,90.80
2018-04-13T20:01:06.963Z,90.90
2018-04-13T20:03:34.484Z,90.70
2018-04-13T20:06:02.023Z,90.50
2018-04-13T20:08:29.541Z,90.40
2018-04-13T20:10:57.086Z,90.20
2018-04-13T20:13:25.393Z,90.10
2018-04-13T20:15:52.941Z,90.10
2018-04-13T20:18:21.229Z,90.10
2018-04-13T20:20:49.508Z,90.00
2018-04-13T20:23:17.042Z,90.00
2018-04-13T20:25:44.553Z,90.10
2018-04-13T20:28:12.100Z,90.10
2018-04-13T20:30:39.607Z,90.10
2018-04-13T20:33:07.917Z,90.30
2018-04-13T20:35:35.447Z,90.20
2018-04-13T20:38:03.006Z,90.20
2018-04-13T20:40:30.551Z,90.20
2018-04-13T20:42:58.070Z,90.00
2018-04-13T20:45:25.576Z,90.00
2018-04-13T20:47:53.114Z,90.00
2018-04-13T20:50:21.394Z,90.30
2018-04-13T20:52:48.923Z,90.20
2018-04-13T20:55:16.445Z,90.50
2018-04-13T20:57:43.971Z,90.50
2018-04-13T21:00:11.530Z,90.60
2018-04-13T21:02:39.068Z,90.70
2018-04-13T21:05:07.357Z,90.80
2018-04-13T21:07:35.654Z,90.80
2018-04-13T21:10:03.939Z,90.90
2018-04-13T21:12:32.258Z,90.90
2018-04-13T21:14:59.770Z,91.00
2018-04-13T21:17:27.302Z,91.10
2018-04-13T21:19:54.866Z,91.10
2018-04-13T21:22:23.157Z,90.80
2018-04-13T21:24:50.737Z,90.80
2018-04-13T21:27:18.202Z,90.80
2018-04-13T21:29:45.756Z,90.70
2018-04-13T21:32:14.037Z,90.70
2018-04-13T21:34:42.328Z,90.80
2018-04-13T21:37:10.599Z,90.90
2018-04-13T21:39:38.123Z,90.90
2018-04-13T21:42:05.638Z,90.90
2018-04-13T21:44:33.171Z,91.00
2018-04-13T21:47:00.698Z,91.10
2018-04-13T21:49:29.021Z,91.10
2018-04-13T21:51:56.554Z,91.10
2018-04-13T21:54:24.082Z,91.20
2018-04-13T21:56:51.614Z,91.40
2018-04-13T21:59:19.910Z,91.10
2018-04-13T22:01:47.430Z,91.10
2018-04-13T22:04:14.958Z,91.30
2018-04-13T22:06:42.472Z,91.30
2018-04-13T22:09:10.006Z,91.50
2018-04-13T22:11:37.505Z,91.30
2018-04-13T22:14:16.864Z,91.50
2018-04-13T22:16:44.370Z,91.60
2018-04-13T22:19:12.675Z,91.70
2018-04-13T22:21:40.193Z,91.70
2018-04-13T22:24:07.721Z,91.70
2018-04-13T22:26:35.266Z,91.60
2018-04-13T22:29:02.762Z,91.70
2018-04-13T22:31:30.294Z,91.70
2018-04-13T22:33:57.788Z,91.70
2018-04-13T22:36:26.085Z,92.00
2018-04-13T22:38:54.365Z,92.10
2018-04-13T22:41:22.646Z,91.90
2018-04-13T22:43:50.139Z,91.90
2018-04-13T22:46:18.428Z,91.90
2018-04-13T22:48:45.927Z,91.90
2018-04-13T22:51:13.451Z,91.90
2018-04-13T22:53:40.952Z,92.00
2018-04-13T22:56:08.488Z,91.90
2018-04-13T22:58:35.998Z,92.10
2018-04-13T23:01:03.522Z,92.30
2018-04-13T23:03:31.017Z,92.50
2018-04-13T23:05:59.319Z,92.70
2018-04-13T23:08:26.816Z,92.70
2018-04-13T23:10:54.333Z,92.70
2018-04-13T23:13:21.837Z,92.70
2018-04-13T23:15:49.346Z,92.70
2018-04-13T23:18:16.832Z,92.70
2018-04-13T23:20:44.358Z,92.70
2018-04-13T23:23:11.854Z,92.80
2018-04-13T23:25:39.747Z,93.10
2018-04-13T23:28:07.409Z,93.10
2018-04-13T23:30:35.133Z,93.10
2018-04-13T23:33:03.395Z,93.20
2018-04-13T23:35:31.073Z,93.20
2018-04-13T23:37:58.638Z,93.30
2018-04-13T23:40:26.564Z,93.40
2018-04-13T23:42:54.075Z,93.30
2018-04-13T23:45:21.757Z,93.40
2018-04-13T23:47:49.576Z,93.20
2018-04-13T23:50:17.490Z,93.20
2018-04-13T23:52:45.138Z,93.30
2018-04-13T23:55:12.688Z,93.50
2018-04-13T23:57:40.204Z,93.60
